createdAt,value
2023-02-25T00:02:24.940Z,101242.22
2023-02-25T00:04:54.078Z,101235.16
2023-02-25T00:07:23.128Z,101242.16
2023-02-25T00:09:49.998Z,101235.91
2023-02-25T00:12:16.882Z,101240.06
2023-02-25T00:14:46.184Z,101231.66
2023-02-25T00:17:13.072Z,101235.00
2023-02-25T00:19:40.122Z,101235.00
2023-02-25T00:22:06.956Z,101237.81
2023-02-25T00:24:33.888Z,101226.56
2023-02-25T00:27:00.804Z,101234.72
2023-02-25T00:29:27.779Z,101234.72
2023-02-25T00:31:54.916Z,101233.03
2023-02-25T00:34:21.915Z,101244.56
2023-02-25T00:36:50.430Z,101237.81
2023-02-25T00:39:19.630Z,101237.81
2023-02-25T00:41:46.574Z,101242.59
2023-02-25T00:44:15.569Z,101240.63
2023-02-25T00:46:42.410Z,101237.59
2023-02-25T00:49:09.235Z,101234.88
2023-02-25T00:51:38.938Z,101229.03
2023-02-25T00:54:05.790Z,101235.78
2023-02-25T00:56:32.638Z,101238.03
2023-02-25T00:59:02.701Z,101238.88
2023-02-25T01:01:31.166Z,101234.16
2023-02-25T01:03:58.504Z,101234.16
2023-02-25T01:06:28.984Z,101242.06
2023-02-25T01:08:55.978Z,101237.88
2023-02-25T01:11:27.288Z,101245.47
2023-02-25T01:13:54.094Z,101242.97
2023-02-25T01:16:22.705Z,101246.38
2023-02-25T01:18:52.217Z,101248.66
2023-02-25T01:21:21.038Z,101250.63
2023-02-25T01:23:48.878Z,101251.25
2023-02-25T01:26:16.060Z,101244.88
2023-02-25T01:28:45.358Z,101254.97
2023-02-25T01:31:15.238Z,101257.00
2023-02-25T01:33:49.256Z,101250.84
2023-02-25T01:36:16.026Z,101247.50
2023-02-25T01:38:42.786Z,101250.59
2023-02-25T01:41:09.744Z,101250.66
2023-02-25T01:43:36.509Z,101252.97
2023-02-25T01:46:03.470Z,101247.91
2023-02-25T01:48:32.806Z,101238.44
2023-02-25T01:51:03.717Z,101238.72
2023-02-25T01:53:33.602Z,101242.94
2023-02-25T01:56:04.056Z,101245.19
2023-02-25T01:58:32.911Z,101251.13
2023-02-25T02:00:59.960Z,101246.94
2023-02-25T02:03:31.412Z,101239.69
2023-02-25T02:05:59.605Z,101236.31
2023-02-25T02:08:26.622Z,101232.97
2023-02-25T02:10:53.499Z,101240.03
2023-02-25T02:13:20.544Z,101245.94
2023-02-25T02:16:03.444Z,101246.53
2023-02-25T02:18:32.222Z,101239.00
2023-02-25T02:21:12.111Z,101237.66
2023-02-25T02:23:47.141Z,101240.50
2023-02-25T02:26:14.187Z,101247.25
2023-02-25T02:28:41.361Z,101242.53
2023-02-25T02:31:11.441Z,101248.13
2023-02-25T02:33:40.968Z,101241.13
2023-02-25T02:36:19.006Z,101239.78
2023-02-25T02:38:46.203Z,101243.47
2023-02-25T02:41:18.018Z,101242.63
2023-02-25T02:43:47.943Z,101245.72
2023-02-25T02:46:20.030Z,101250.81
2023-02-25T02:48:50.747Z,101246.63
2023-02-25T02:51:23.248Z,101248.06
2023-02-25T02:53:52.730Z,101250.31
2023-02-25T02:56:21.952Z,101253.72
2023-02-25T02:58:53.195Z,101257.94
2023-02-25T03:01:22.682Z,101253.47
2023-02-25T03:03:52.597Z,101253.75
2023-02-25T03:06:21.731Z,101248.47
2023-02-25T03:08:51.286Z,101254.63
2023-02-25T03:11:18.142Z,101254.34
2023-02-25T03:13:45.045Z,101239.53
2023-02-25T03:16:17.254Z,101255.25
2023-02-25T03:18:49.742Z,101255.53
2023-02-25T03:21:20.435Z,101249.69
2023-02-25T03:23:48.398Z,101257.53
2023-02-25T03:26:15.514Z,101256.72
2023-02-25T03:28:45.157Z,101250.84
2023-02-25T03:31:15.405Z,101252.00
2023-02-25T03:33:48.225Z,101258.13
2023-02-25T03:36:18.212Z,101256.78
2023-02-25T03:38:47.184Z,101267.13
2023-02-25T03:41:15.843Z,101256.53
2023-02-25T03:43:46.368Z,101249.53
2023-02-25T03:46:16.372Z,101254.88
2023-02-25T03:48:43.584Z,101253.22
2023-02-25T03:51:10.387Z,101257.44
2023-02-25T03:53:37.103Z,101246.50
2023-02-25T03:56:05.880Z,101242.88
2023-02-25T03:58:34.142Z,101251.88
2023-02-25T04:01:03.624Z,101246.84
2023-02-25T04:03:30.548Z,101251.06
2023-02-25T04:05:57.267Z,101246.31
2023-02-25T04:08:24.057Z,101247.19
2023-02-25T04:10:50.756Z,101248.31
2023-02-25T04:13:20.930Z,101257.28
2023-02-25T04:15:48.547Z,101259.25
2023-02-25T04:18:15.397Z,101255.91
2023-02-25T04:20:42.487Z,101262.66
2023-02-25T04:23:12.405Z,101264.63
2023-02-25T04:25:39.125Z,101276.09
2023-02-25T04:28:05.885Z,101270.78
2023-02-25T04:30:34.268Z,101275.84
2023-02-25T04:33:01.354Z,101273.31
2023-02-25T04:35:28.103Z,101278.41
2023-02-25T04:37:54.878Z,101278.66
2023-02-25T04:40:22.580Z,101277.00
2023-02-25T04:42:49.749Z,101277.59
2023-02-25T04:45:18.821Z,101284.31
2023-02-25T04:47:45.584Z,101282.63
2023-02-25T04:50:12.750Z,101287.38
2023-02-25T04:52:39.751Z,101286.84
2023-02-25T04:55:06.980Z,101291.00
2023-02-25T04:57:33.807Z,101288.81
2023-02-25T05:00:00.549Z,101274.25
2023-02-25T05:02:27.258Z,101279.84
2023-02-25T05:04:54.008Z,101278.19
2023-02-25T05:07:20.897Z,101277.91
2023-02-25T05:09:47.760Z,101295.84
2023-02-25T05:12:14.884Z,101288.84
2023-02-25T05:14:41.766Z,101283.25
2023-02-25T05:17:08.550Z,101283.84
2023-02-25T05:19:35.817Z,101293.91
2023-02-25T05:22:02.607Z,101294.19
2023-02-25T05:24:29.383Z,101305.41
2023-02-25T05:26:56.140Z,101309.59
2023-02-25T05:29:22.937Z,101301.78
2023-02-25T05:31:52.073Z,101304.84
2023-02-25T05:34:18.939Z,101304.56
2023-02-25T05:36:46.980Z,101302.88
2023-02-25T05:39:13.900Z,101311.03
2023-02-25T05:41:40.797Z,101304.59
2023-02-25T05:44:08.133Z,101290.91
2023-02-25T05:46:35.159Z,101295.94
2023-02-25T05:49:02.025Z,101297.06
2023-02-25T05:51:28.817Z,101307.69
2023-02-25T05:53:55.694Z,101302.97
2023-02-25T05:56:25.715Z,101303.19
2023-02-25T05:58:52.859Z,101302.94
2023-02-25T06:01:22.866Z,101306.03
2023-02-25T06:03:50.337Z,101313.56
2023-02-25T06:06:21.328Z,101314.69
2023-02-25T06:08:49.623Z,101305.44
2023-02-25T06:11:18.986Z,101302.41
2023-02-25T06:13:47.745Z,101305.19
2023-02-25T06:16:14.945Z,101305.50
2023-02-25T06:18:41.716Z,101311.09
2023-02-25T06:21:12.641Z,101314.16
2023-02-25T06:23:40.409Z,101316.97
2023-02-25T06:26:08.126Z,101321.16
2023-02-25T06:28:35.800Z,101307.47
2023-02-25T06:31:04.810Z,101309.69
2023-02-25T06:33:32.043Z,101310.81
2023-02-25T06:35:59.259Z,101308.31
2023-02-25T06:38:30.833Z,101316.72
2023-02-25T06:40:57.656Z,101319.78
2023-02-25T06:43:24.400Z,101324.84
2023-02-25T06:45:53.354Z,101330.97
2023-02-25T06:48:20.133Z,101320.34
2023-02-25T06:50:46.817Z,101328.19
2023-02-25T06:53:13.502Z,101331.56
2023-02-25T06:55:40.689Z,101339.38
2023-02-25T06:58:07.581Z,101343.84
2023-02-25T07:00:35.654Z,101341.63
2023-02-25T07:03:03.415Z,101351.13
2023-02-25T07:05:30.174Z,101358.13
2023-02-25T07:07:57.015Z,101360.09
2023-02-25T07:10:25.985Z,101360.38
2023-02-25T07:12:53.508Z,101358.69
2023-02-25T07:15:20.948Z,101351.69
2023-02-25T07:17:48.076Z,101352.53
2023-02-25T07:20:15.214Z,101352.25
2023-02-25T07:22:43.112Z,101365.97
2023-02-25T07:25:11.958Z,101358.97
2023-02-25T07:27:42.421Z,101370.72
2023-02-25T07:30:14.081Z,101368.78
2023-02-25T07:32:42.030Z,101364.59
2023-02-25T07:35:09.455Z,101372.97
2023-02-25T07:37:36.180Z,101375.22
2023-02-25T07:40:03.080Z,101381.91
2023-02-25T07:42:29.895Z,101385.00
2023-02-25T07:45:01.762Z,101384.72
2023-02-25T07:47:28.896Z,101387.50
2023-02-25T07:49:55.873Z,101386.69
2023-02-25T07:52:24.845Z,101383.31
2023-02-25T07:54:52.059Z,101395.34
2023-02-25T07:57:18.794Z,101396.47
2023-02-25T07:59:45.537Z,101386.38
2023-02-25T08:02:12.786Z,101399.53
2023-02-25T08:04:39.704Z,101402.63
2023-02-25T08:07:07.050Z,101408.47
2023-02-25T08:09:33.790Z,101414.34
2023-02-25T08:12:00.537Z,101414.34
2023-02-25T08:14:27.236Z,101419.13
2023-02-25T08:16:56.520Z,101421.06
2023-02-25T08:19:23.655Z,101419.13
2023-02-25T08:21:50.546Z,101422.19
2023-02-25T08:24:20.723Z,101429.47
2023-02-25T08:26:47.826Z,101424.97
2023-02-25T08:29:15.050Z,101429.72
2023-02-25T08:31:42.181Z,101428.88
2023-02-25T08:34:11.359Z,101423.88
2023-02-25T08:36:38.099Z,101426.34
2023-02-25T08:39:04.972Z,101425.81
2023-02-25T08:41:31.716Z,101420.22
2023-02-25T08:43:59.264Z,101429.72
2023-02-25T08:46:27.670Z,101420.50
2023-02-25T08:48:55.059Z,101416.03
2023-02-25T08:51:23.590Z,101426.09
2023-02-25T08:53:50.966Z,101427.19
2023-02-25T08:56:18.081Z,101418.00
2023-02-25T08:58:44.991Z,101422.19
2023-02-25T09:01:13.897Z,101417.44
2023-02-25T09:03:51.392Z,101419.38
2023-02-25T09:06:20.107Z,101415.75
2023-02-25T09:08:46.845Z,101428.88
2023-02-25T09:11:13.694Z,101433.63
2023-02-25T09:13:40.517Z,101426.06
2023-02-25T09:16:07.697Z,101424.69
2023-02-25T09:18:34.631Z,101429.44
2023-02-25T09:21:01.942Z,101425.25
2023-02-25T09:23:28.747Z,101430.81
2023-02-25T09:25:55.714Z,101437.25
2023-02-25T09:28:24.507Z,101428.03
2023-02-25T09:30:51.533Z,101431.13
2023-02-25T09:33:18.333Z,101424.69
2023-02-25T09:35:45.492Z,101439.78
2023-02-25T09:38:13.267Z,101433.94
2023-02-25T09:40:41.391Z,101437.84
2023-02-25T09:43:11.287Z,101435.91
2023-02-25T09:45:41.164Z,101430.00
2023-02-25T09:48:16.319Z,101431.13
2023-02-25T09:50:46.817Z,101429.75
2023-02-25T09:53:17.907Z,101423.84
2023-02-25T09:55:47.932Z,101441.16
2023-02-25T09:58:17.695Z,101429.44
2023-02-25T10:00:45.890Z,101434.47
2023-02-25T10:03:13.302Z,101446.47
2023-02-25T10:05:41.575Z,101441.44
2023-02-25T10:08:19.239Z,101439.47
2023-02-25T10:11:13.048Z,101437.22
2023-02-25T10:13:42.999Z,101441.41
2023-02-25T10:16:11.291Z,101440.81
2023-02-25T10:18:41.897Z,101446.94
2023-02-25T10:21:11.750Z,101445.53
2023-02-25T10:23:49.140Z,101438.50
2023-02-25T10:26:19.698Z,101441.56
2023-02-25T10:28:50.913Z,101449.66
2023-02-25T10:31:19.048Z,101444.84
2023-02-25T10:33:48.451Z,101446.78
2023-02-25T10:36:15.817Z,101456.31
2023-02-25T10:38:45.731Z,101459.06
2023-02-25T10:41:13.175Z,101460.44
2023-02-25T10:43:40.550Z,101468.88
2023-02-25T10:46:10.896Z,101454.00
2023-02-25T10:48:38.646Z,101463.78
2023-02-25T10:51:06.067Z,101469.75
2023-02-25T10:53:34.229Z,101472.84
2023-02-25T10:56:01.801Z,101472.22
2023-02-25T10:58:33.651Z,101467.19
2023-02-25T11:01:04.558Z,101465.19
2023-02-25T11:03:32.706Z,101475.22
2023-02-25T11:06:02.567Z,101465.41
2023-02-25T11:08:32.092Z,101470.16
2023-02-25T11:11:01.542Z,101466.75
2023-02-25T11:13:29.971Z,101456.38
2023-02-25T11:15:59.199Z,101464.44
2023-02-25T11:18:29.287Z,101474.53
2023-02-25T11:21:00.005Z,101461.31
2023-02-25T11:23:30.030Z,101467.72
2023-02-25T11:25:57.822Z,101467.38
2023-02-25T11:28:29.414Z,101470.16
2023-02-25T11:31:06.562Z,101454.69
2023-02-25T11:33:37.483Z,101464.19
2023-02-25T11:36:05.076Z,101468.06
2023-02-25T11:38:35.136Z,101471.13
2023-02-25T11:41:03.409Z,101468.56
2023-02-25T11:43:33.855Z,101453.91
2023-02-25T11:46:03.295Z,101459.47
2023-02-25T11:48:30.840Z,101460.00
2023-02-25T11:51:00.809Z,101455.47
2023-02-25T11:53:30.817Z,101447.00
2023-02-25T11:56:05.075Z,101451.41
2023-02-25T11:58:34.985Z,101447.41
2023-02-25T12:01:05.371Z,101446.53
2023-02-25T12:03:35.386Z,101435.84
2023-02-25T12:06:05.653Z,101436.06
2023-02-25T12:08:35.882Z,101437.44
2023-02-25T12:11:05.814Z,101438.50
2023-02-25T12:13:35.900Z,101435.63
2023-02-25T12:16:03.227Z,101434.22
2023-02-25T12:18:33.240Z,101437.56
2023-02-25T12:21:03.858Z,101431.66
2023-02-25T12:23:33.927Z,101438.34
2023-02-25T12:26:04.488Z,101428.78
2023-02-25T12:28:35.049Z,101431.81
2023-02-25T12:31:12.725Z,101426.41
2023-02-25T12:33:43.488Z,101439.06
2023-02-25T12:36:10.924Z,101432.84
2023-02-25T12:38:41.094Z,101435.38
2023-02-25T12:41:08.645Z,101435.59
2023-02-25T12:43:38.450Z,101429.69
2023-02-25T12:46:08.816Z,101436.38
2023-02-25T12:48:40.823Z,101439.19
2023-02-25T12:51:10.826Z,101438.28
2023-02-25T12:53:40.637Z,101432.94
2023-02-25T12:56:07.933Z,101435.75
2023-02-25T12:58:37.916Z,101436.00
2023-02-25T13:01:07.948Z,101438.81
2023-02-25T13:03:38.036Z,101429.53
2023-02-25T13:06:08.063Z,101443.28
2023-02-25T13:08:35.248Z,101441.59
2023-02-25T13:11:10.721Z,101436.53
2023-02-25T13:13:40.823Z,101436.22
2023-02-25T13:16:18.561Z,101441.25
2023-02-25T13:18:51.158Z,101437.31
2023-02-25T13:21:21.564Z,101430.78
2023-02-25T13:23:51.378Z,101421.94
2023-02-25T13:26:27.108Z,101421.34
2023-02-25T13:29:03.843Z,101430.53
2023-02-25T13:31:31.249Z,101418.09
2023-02-25T13:34:01.713Z,101410.16
2023-02-25T13:36:29.266Z,101403.94
2023-02-25T13:38:56.408Z,101399.16
2023-02-25T13:41:24.991Z,101398.53
2023-02-25T13:43:52.629Z,101398.75
2023-02-25T13:46:21.108Z,101400.97
2023-02-25T13:48:51.671Z,101401.72
2023-02-25T13:51:22.294Z,101410.69
2023-02-25T13:53:52.680Z,101405.28
2023-02-25T13:56:21.184Z,101404.13
2023-02-25T13:58:53.816Z,101399.94
2023-02-25T14:01:24.990Z,101404.44
2023-02-25T14:03:59.893Z,101412.59
2023-02-25T14:06:30.225Z,101415.69
2023-02-25T14:09:00.500Z,101419.63
2023-02-25T14:11:30.509Z,101418.84
2023-02-25T14:14:01.578Z,101424.47
2023-02-25T14:16:37.014Z,101423.63
2023-02-25T14:19:04.455Z,101425.25
2023-02-25T14:21:34.442Z,101425.59
2023-02-25T14:24:08.273Z,101447.25
2023-02-25T14:26:43.283Z,101442.47
2023-02-25T14:29:13.265Z,101441.94
2023-02-25T14:31:42.143Z,101448.41
2023-02-25T14:34:09.529Z,101448.41
2023-02-25T14:36:39.842Z,101441.16
2023-02-25T14:39:18.191Z,101441.09
2023-02-25T14:41:46.565Z,101442.78
2023-02-25T14:44:17.283Z,101441.00
2023-02-25T14:46:51.142Z,101445.75
2023-02-25T14:49:21.926Z,101449.94
2023-02-25T14:51:51.805Z,101447.66
2023-02-25T14:54:21.673Z,101437.78
2023-02-25T14:56:51.685Z,101441.94
2023-02-25T14:59:22.010Z,101438.00
2023-02-25T15:01:52.078Z,101444.13
2023-02-25T15:04:22.045Z,101439.88
2023-02-25T15:06:49.191Z,101444.69
2023-02-25T15:09:16.392Z,101433.63
2023-02-25T15:11:46.216Z,101448.25
2023-02-25T15:14:22.128Z,101464.00
2023-02-25T15:16:51.960Z,101470.75
2023-02-25T15:19:28.637Z,101461.47
2023-02-25T15:21:58.608Z,101461.25
2023-02-25T15:24:27.327Z,101473.13
2023-02-25T15:26:54.843Z,101477.38
2023-02-25T15:29:41.593Z,101478.00
2023-02-25T15:32:11.460Z,101482.25
2023-02-25T15:34:38.936Z,101478.38
2023-02-25T15:37:08.882Z,101472.53
2023-02-25T15:39:38.844Z,101485.97
2023-02-25T15:42:06.000Z,101487.97
2023-02-25T15:44:33.960Z,101487.44
2023-02-25T15:47:03.966Z,101494.19
2023-02-25T15:49:33.530Z,101487.72
2023-02-25T15:52:04.173Z,101489.47
2023-02-25T15:54:31.758Z,101490.09
2023-02-25T15:57:00.700Z,101495.16
2023-02-25T15:59:30.713Z,101495.44
2023-02-25T16:01:59.868Z,101503.38
2023-02-25T16:04:36.346Z,101510.13
2023-02-25T16:07:07.319Z,101513.84
2023-02-25T16:09:34.949Z,101513.94
2023-02-25T16:12:05.764Z,101529.13
2023-02-25T16:14:35.493Z,101513.41
2023-02-25T16:17:04.162Z,101519.94
2023-02-25T16:19:36.164Z,101525.00
2023-02-25T16:22:09.323Z,101525.31
2023-02-25T16:24:37.327Z,101518.31
2023-02-25T16:27:06.872Z,101528.72
2023-02-25T16:29:34.542Z,101527.66
2023-02-25T16:32:06.089Z,101532.22
2023-02-25T16:34:38.563Z,101544.59
2023-02-25T16:37:10.162Z,101549.16
2023-02-25T16:39:37.944Z,101550.03
2023-02-25T16:42:06.717Z,101546.41
2023-02-25T16:44:38.533Z,101561.56
2023-02-25T16:47:13.347Z,101558.53
2023-02-25T16:49:46.318Z,101559.16
2023-02-25T16:52:16.457Z,101562.25
2023-02-25T16:54:44.832Z,101567.91
2023-02-25T16:57:19.613Z,101556.44
2023-02-25T16:59:47.680Z,101561.50
2023-02-25T17:02:18.236Z,101552.25
2023-02-25T17:04:47.361Z,101555.03
2023-02-25T17:07:18.156Z,101564.59
2023-02-25T17:09:48.322Z,101565.09
2023-02-25T17:12:17.604Z,101572.94
2023-02-25T17:14:47.188Z,101582.75
2023-02-25T17:17:16.923Z,101571.22
2023-02-25T17:19:44.328Z,101577.94
2023-02-25T17:22:11.803Z,101573.91
2023-02-25T17:24:40.782Z,101575.28
2023-02-25T17:27:13.101Z,101582.28
2023-02-25T17:29:40.646Z,101580.84
2023-02-25T17:32:10.770Z,101600.53
2023-02-25T17:34:37.831Z,101587.31
2023-02-25T17:37:06.893Z,101605.00
2023-02-25T17:39:33.896Z,101601.91
2023-02-25T17:42:00.949Z,101605.00
2023-02-25T17:44:30.931Z,101610.34
2023-02-25T17:47:00.496Z,101606.69
2023-02-25T17:49:29.775Z,101615.66
2023-02-25T17:51:59.770Z,101609.72
2023-02-25T17:54:27.625Z,101606.91
2023-02-25T17:56:59.411Z,101609.19
2023-02-25T17:59:30.656Z,101620.97
2023-02-25T18:01:58.447Z,101628.28
2023-02-25T18:04:25.934Z,101628.34
2023-02-25T18:06:55.969Z,101634.22
2023-02-25T18:09:26.174Z,101647.44
2023-02-25T18:11:54.795Z,101640.97
2023-02-25T18:14:24.641Z,101646.59
2023-02-25T18:16:53.019Z,101648.00
2023-02-25T18:19:23.466Z,101647.50
2023-02-25T18:21:50.757Z,101658.78
2023-02-25T18:24:20.929Z,101666.09
2023-02-25T18:26:51.156Z,101670.63
2023-02-25T18:29:20.536Z,101657.16
2023-02-25T18:31:49.840Z,101666.44
2023-02-25T18:34:16.920Z,101659.97
2023-02-25T18:36:44.572Z,101662.53
2023-02-25T18:39:12.731Z,101678.31
2023-02-25T18:41:41.905Z,101671.31
2023-02-25T18:44:12.088Z,101675.84
2023-02-25T18:46:38.983Z,101679.50
2023-02-25T18:49:06.039Z,101676.16
2023-02-25T18:51:32.921Z,101684.91
2023-02-25T18:54:02.318Z,101685.47
2023-02-25T18:56:29.253Z,101680.16
2023-02-25T18:58:57.840Z,101690.53
2023-02-25T19:01:27.027Z,101685.53
2023-02-25T19:03:59.478Z,101689.19
2023-02-25T19:06:28.043Z,101692.88
2023-02-25T19:08:54.983Z,101681.97
2023-02-25T19:11:24.206Z,101686.16
2023-02-25T19:13:51.770Z,101689.84
2023-02-25T19:16:19.580Z,101694.09
2023-02-25T19:18:47.990Z,101699.75
2023-02-25T19:21:16.959Z,101703.13
2023-02-25T19:23:44.218Z,101704.81
2023-02-25T19:26:11.358Z,101706.53
2023-02-25T19:28:38.351Z,101708.53
2023-02-25T19:31:06.259Z,101711.63
2023-02-25T19:33:33.171Z,101709.97
2023-02-25T19:36:00.532Z,101713.06
2023-02-25T19:38:27.344Z,101724.03
2023-02-25T19:40:54.608Z,101722.88
2023-02-25T19:43:21.790Z,101722.94
2023-02-25T19:45:50.581Z,101729.38
2023-02-25T19:48:17.434Z,101721.28
2023-02-25T19:50:44.328Z,101724.97
2023-02-25T19:53:11.513Z,101731.97
2023-02-25T19:55:39.370Z,101726.41
2023-02-25T19:58:06.301Z,101730.63
2023-02-25T20:00:33.293Z,101744.94
2023-02-25T20:03:00.184Z,101746.38
2023-02-25T20:05:27.024Z,101755.38
2023-02-25T20:07:53.902Z,101753.44
2023-02-25T20:10:23.913Z,101751.13
2023-02-25T20:12:50.785Z,101763.78
2023-02-25T20:15:17.818Z,101764.06
2023-02-25T20:17:45.594Z,101768.03
2023-02-25T20:20:13.426Z,101765.78
2023-02-25T20:22:40.656Z,101764.66
2023-02-25T20:25:08.325Z,101775.63
2023-02-25T20:27:37.281Z,101772.81
2023-02-25T20:30:05.045Z,101785.44
2023-02-25T20:32:31.958Z,101785.75
2023-02-25T20:35:00.504Z,101785.19
2023-02-25T20:37:31.580Z,101784.91
2023-02-25T20:39:58.955Z,101793.34
2023-02-25T20:42:28.651Z,101783.81
2023-02-25T20:44:58.916Z,101796.41
2023-02-25T20:47:28.093Z,101799.22
2023-02-25T20:49:56.160Z,101797.00
2023-02-25T20:52:23.532Z,101800.91
2023-02-25T20:54:50.692Z,101805.16
2023-02-25T20:57:19.141Z,101812.97
2023-02-25T20:59:46.097Z,101817.78
2023-02-25T21:02:12.929Z,101823.09
2023-02-25T21:04:39.736Z,101829.53
2023-02-25T21:07:07.189Z,101839.91
2023-02-25T21:09:34.308Z,101834.88
2023-02-25T21:12:01.765Z,101839.63
2023-02-25T21:14:28.622Z,101832.34
2023-02-25T21:16:55.523Z,101834.03
2023-02-25T21:19:23.445Z,101839.38
2023-02-25T21:21:50.630Z,101850.56
2023-02-25T21:24:18.240Z,101850.31
2023-02-25T21:26:45.657Z,101846.91
2023-02-25T21:29:12.798Z,101857.00
2023-02-25T21:31:40.398Z,101853.66
2023-02-25T21:34:09.334Z,101863.47
2023-02-25T21:36:36.771Z,101867.91
2023-02-25T21:39:04.160Z,101863.16
2023-02-25T21:41:31.099Z,101868.19
2023-02-25T21:43:58.182Z,101878.84
2023-02-25T21:46:25.382Z,101881.91
2023-02-25T21:48:53.475Z,101878.00
2023-02-25T21:51:21.887Z,101882.75
2023-02-25T21:53:48.766Z,101881.03
2023-02-25T21:56:17.091Z,101874.91
2023-02-25T21:58:44.535Z,101880.22
2023-02-25T22:01:14.656Z,101887.47
2023-02-25T22:03:41.738Z,101884.69
2023-02-25T22:06:09.271Z,101898.41
2023-02-25T22:08:38.024Z,101890.56
2023-02-25T22:11:05.402Z,101891.94
2023-02-25T22:13:32.780Z,101889.16
2023-02-25T22:16:00.926Z,101895.03
2023-02-25T22:18:27.682Z,101900.06
2023-02-25T22:21:03.038Z,101900.63
2023-02-25T22:23:30.104Z,101903.13
2023-02-25T22:26:00.944Z,101908.22
2023-02-25T22:28:27.806Z,101903.47
2023-02-25T22:30:56.928Z,101907.91
2023-02-25T22:33:23.994Z,101903.75
2023-02-25T22:35:55.453Z,101907.66
2023-02-25T22:38:22.278Z,101890.84
2023-02-25T22:40:49.126Z,101905.16
2023-02-25T22:43:16.019Z,101906.59
2023-02-25T22:45:42.812Z,101915.81
2023-02-25T22:48:09.584Z,101913.91
2023-02-25T22:50:36.431Z,101906.63
2023-02-25T22:53:03.250Z,101908.31
2023-02-25T22:55:30.060Z,101922.34
2023-02-25T22:57:56.871Z,101907.78
2023-02-25T23:00:24.154Z,101917.88
2023-02-25T23:02:50.988Z,101922.34
2023-02-25T23:05:17.792Z,101912.25
2023-02-25T23:07:44.597Z,101918.44
2023-02-25T23:10:11.589Z,101917.59
2023-02-25T23:12:38.377Z,101915.91
2023-02-25T23:15:05.560Z,101930.22
2023-02-25T23:17:32.357Z,101931.31
2023-02-25T23:20:00.481Z,101927.97
2023-02-25T23:22:29.809Z,101942.28
2023-02-25T23:24:57.346Z,101938.63
2023-02-25T23:27:24.385Z,101938.06
2023-02-25T23:29:51.204Z,101944.78
2023-02-25T23:32:18.261Z,101949.56
2023-02-25T23:34:45.101Z,101947.06
2023-02-25T23:37:11.963Z,101957.72
2023-02-25T23:39:40.072Z,101957.41
2023-02-25T23:42:08.890Z,101963.03
2023-02-25T23:44:35.981Z,101961.91
2023-02-25T23:47:03.231Z,101965.53
2023-02-25T23:49:30.034Z,101970.56
2023-02-25T23:51:56.867Z,101963.56
2023-02-25T23:54:24.287Z,101965.53
2023-02-25T23:56:51.275Z,101963.81
2023-02-25T23:59:18.564Z,101966.06
